sensor_id;sensor_type;location;lat;lon;timestamp;P1;P2;P0
44045;PMS7003;29709;52.396;16.796;2022-10-19T00:02:16;7;5;4
44045;PMS7003;29709;52.396;16.796;2022-10-19T00:05:39;6;6;4
44045;PMS7003;29709;52.396;16.796;2022-10-19T00:09:09;8;6;4
44045;PMS7003;29709;52.396;16.796;2022-10-19T00:12:17;7;5;4
44045;PMS7003;29709;52.396;16.796;2022-10-19T00:15:20;9;6;5
44045;PMS7003;29709;52.396;16.796;2022-10-19T01:39:53;4;4;3
44045;PMS7003;29709;52.396;16.796;2022-10-19T01:43:08;2;2;1
44045;PMS7003;29709;52.396;16.796;2022-10-19T01:46:20;5;4;3
44045;PMS7003;29709;52.396;16.796;2022-10-19T01:49:33;4;3;1
44045;PMS7003;29709;52.396;16.796;2022-10-19T01:52:41;4;3;3
44045;PMS7003;29709;52.396;16.796;2022-10-19T01:56:10;1;0;0
44045;PMS7003;29709;52.396;16.796;2022-10-19T01:59:18;4;3;2
44045;PMS7003;29709;52.396;16.796;2022-10-19T02:02:25;4;3;3
44045;PMS7003;29709;52.396;16.796;2022-10-19T02:05:30;3;2;1
44045;PMS7003;29709;52.396;16.796;2022-10-19T02:08:53;4;4;3
44045;PMS7003;29709;52.396;16.796;2022-10-19T02:14:59;3;2;1
44045;PMS7003;29709;52.396;16.796;2022-10-19T02:18:07;3;3;2
44045;PMS7003;29709;52.396;16.796;2022-10-19T02:21:14;4;3;2
44045;PMS7003;29709;52.396;16.796;2022-10-19T02:24:42;3;2;2
44045;PMS7003;29709;52.396;16.796;2022-10-19T02:27:45;4;3;2
44045;PMS7003;29709;52.396;16.796;2022-10-19T02:30:48;5;3;2
44045;PMS7003;29709;52.396;16.796;2022-10-19T02:33:51;1;1;1
44045;PMS7003;29709;52.396;16.796;2022-10-19T02:36:55;5;3;2
44045;PMS7003;29709;52.396;16.796;2022-10-19T02:39:59;3;2;1
44045;PMS7003;29709;52.396;16.796;2022-10-19T02:43:03;3;3;2
44045;PMS7003;29709;52.396;16.796;2022-10-19T02:49:49;3;3;2
44045;PMS7003;29709;52.396;16.796;2022-10-19T02:52:56;3;2;1
44045;PMS7003;29709;52.396;16.796;2022-10-19T02:56:02;3;3;2
44045;PMS7003;29709;52.396;16.796;2022-10-19T02:59:05;3;2;2
44045;PMS7003;29709;52.396;16.796;2022-10-19T03:02:08;3;2;2
44045;PMS7003;29709;52.396;16.796;2022-10-19T03:05:11;3;2;1
44045;PMS7003;29709;52.396;16.796;2022-10-19T03:08:14;3;2;2
44045;PMS7003;29709;52.396;16.796;2022-10-19T03:11:17;2;2;2
44045;PMS7003;29709;52.396;16.796;2022-10-19T03:14:20;2;2;2
44045;PMS7003;29709;52.396;16.796;2022-10-19T03:17:23;4;3;2
44045;PMS7003;29709;52.396;16.796;2022-10-19T03:21:00;3;2;2
44045;PMS7003;29709;52.396;16.796;2022-10-19T03:24:05;3;2;1
44045;PMS7003;29709;52.396;16.796;2022-10-19T03:27:08;2;2;2
44045;PMS7003;29709;52.396;16.796;2022-10-19T03:30:12;4;2;2
44045;PMS7003;29709;52.396;16.796;2022-10-19T03:33:15;3;3;2
44045;PMS7003;29709;52.396;16.796;2022-10-19T03:36:22;2;2;2
44045;PMS7003;29709;52.396;16.796;2022-10-19T03:39:27;3;2;2
44045;PMS7003;29709;52.396;16.796;2022-10-19T03:42:58;3;2;2
44045;PMS7003;29709;52.396;16.796;2022-10-19T03:46:01;3;1;1
44045;PMS7003;29709;52.396;16.796;2022-10-19T03:49:04;3;2;2
44045;PMS7003;29709;52.396;16.796;2022-10-19T03:52:10;2;2;2
44045;PMS7003;29709;52.396;16.796;2022-10-19T03:55:15;1;1;1
44045;PMS7003;29709;52.396;16.796;2022-10-19T04:01:35;2;2;1
44045;PMS7003;29709;52.396;16.796;2022-10-19T04:05:06;2;2;1
44045;PMS7003;29709;52.396;16.796;2022-10-19T04:08:10;2;2;1
44045;PMS7003;29709;52.396;16.796;2022-10-19T04:11:13;3;2;1
44045;PMS7003;29709;52.396;16.796;2022-10-19T04:14:21;1;1;1
44045;PMS7003;29709;52.396;16.796;2022-10-19T04:17:24;2;1;0
44045;PMS7003;29709;52.396;16.796;2022-10-19T04:20:28;2;2;2
44045;PMS7003;29709;52.396;16.796;2022-10-19T04:23:32;2;2;1
44045;PMS7003;29709;52.396;16.796;2022-10-19T04:26:39;2;1;1
44045;PMS7003;29709;52.396;16.796;2022-10-19T04:29:45;2;2;1
44045;PMS7003;29709;52.396;16.796;2022-10-19T04:33:16;2;2;1
44045;PMS7003;29709;52.396;16.796;2022-10-19T04:36:19;1;0;0
44045;PMS7003;29709;52.396;16.796;2022-10-19T04:39:22;2;1;1
44045;PMS7003;29709;52.396;16.796;2022-10-19T04:42:25;2;2;1
44045;PMS7003;29709;52.396;16.796;2022-10-19T04:45:28;1;1;1
44045;PMS7003;29709;52.396;16.796;2022-10-19T04:48:32;2;2;2
44045;PMS7003;29709;52.396;16.796;2022-10-19T04:51:36;2;1;0
44045;PMS7003;29709;52.396;16.796;2022-10-19T04:54:39;2;1;1
44045;PMS7003;29709;52.396;16.796;2022-10-19T04:57:42;1;1;0
44045;PMS7003;29709;52.396;16.796;2022-10-19T05:00:45;2;1;1
44045;PMS7003;29709;52.396;16.796;2022-10-19T05:04:15;2;2;1
44045;PMS7003;29709;52.396;16.796;2022-10-19T05:07:18;1;1;1
44045;PMS7003;29709;52.396;16.796;2022-10-19T05:10:21;1;1;0
44045;PMS7003;29709;52.396;16.796;2022-10-19T05:13:26;0;0;0
44045;PMS7003;29709;52.396;16.796;2022-10-19T05:16:29;2;1;1
44045;PMS7003;29709;52.396;16.796;2022-10-19T05:19:32;2;1;1
44045;PMS7003;29709;52.396;16.796;2022-10-19T05:22:39;2;1;1
44045;PMS7003;29709;52.396;16.796;2022-10-19T05:25:42;1;1;1
44045;PMS7003;29709;52.396;16.796;2022-10-19T05:28:48;1;1;0
44045;PMS7003;29709;52.396;16.796;2022-10-19T05:32:17;2;0;0
44045;PMS7003;29709;52.396;16.796;2022-10-19T05:35:20;2;1;0
44045;PMS7003;29709;52.396;16.796;2022-10-19T05:38:23;1;0;0
44045;PMS7003;29709;52.396;16.796;2022-10-19T05:41:30;1;0;0
44045;PMS7003;29709;52.396;16.796;2022-10-19T05:44:33;0;0;0
44045;PMS7003;29709;52.396;16.796;2022-10-19T05:47:43;2;1;0
44045;PMS7003;29709;52.396;16.796;2022-10-19T05:53:55;2;1;1
44045;PMS7003;29709;52.396;16.796;2022-10-19T06:00:38;0;0;0
44045;PMS7003;29709;52.396;16.796;2022-10-19T06:03:40;0;0;0
44045;PMS7003;29709;52.396;16.796;2022-10-19T06:06:44;1;1;0
44045;PMS7003;29709;52.396;16.796;2022-10-19T06:09:47;1;0;0
44045;PMS7003;29709;52.396;16.796;2022-10-19T06:12:50;0;0;0
44045;PMS7003;29709;52.396;16.796;2022-10-19T06:15:53;0;0;0
44045;PMS7003;29709;52.396;16.796;2022-10-19T06:22:34;1;0;0
44045;PMS7003;29709;52.396;16.796;2022-10-19T06:25:37;0;0;0
44045;PMS7003;29709;52.396;16.796;2022-10-19T06:28:42;0;0;0
44045;PMS7003;29709;52.396;16.796;2022-10-19T06:31:46;2;1;0
44045;PMS7003;29709;52.396;16.796;2022-10-19T06:34:49;1;1;0
44045;PMS7003;29709;52.396;16.796;2022-10-19T06:37:54;1;1;0
44045;PMS7003;29709;52.396;16.796;2022-10-19T06:41:00;1;0;0
44045;PMS7003;29709;52.396;16.796;2022-10-19T06:44:03;1;1;0
44045;PMS7003;29709;52.396;16.796;2022-10-19T06:47:07;0;0;0
44045;PMS7003;29709;52.396;16.796;2022-10-19T06:50:09;1;0;0
44045;PMS7003;29709;52.396;16.796;2022-10-19T06:53:38;3;0;0
44045;PMS7003;29709;52.396;16.796;2022-10-19T06:56:41;1;0;0
44045;PMS7003;29709;52.396;16.796;2022-10-19T06:59:44;0;0;0
44045;PMS7003;29709;52.396;16.796;2022-10-19T07:02:46;0;0;0
44045;PMS7003;29709;52.396;16.796;2022-10-19T07:09:08;0;0;0
44045;PMS7003;29709;52.396;16.796;2022-10-19T07:12:11;0;0;0
44045;PMS7003;29709;52.396;16.796;2022-10-19T07:15:15;0;0;0
44045;PMS7003;29709;52.396;16.796;2022-10-19T07:18:46;0;0;0
44045;PMS7003;29709;52.396;16.796;2022-10-19T07:21:50;0;0;0
44045;PMS7003;29709;52.396;16.796;2022-10-19T07:24:53;0;0;0
44045;PMS7003;29709;52.396;16.796;2022-10-19T07:27:56;0;0;0
44045;PMS7003;29709;52.396;16.796;2022-10-19T07:31:03;1;1;0
44045;PMS7003;29709;52.396;16.796;2022-10-19T07:34:11;0;0;0
44045;PMS7003;29709;52.396;16.796;2022-10-19T07:37:15;0;0;0
44045;PMS7003;29709;52.396;16.796;2022-10-19T07:40:18;0;0;0
44045;PMS7003;29709;52.396;16.796;2022-10-19T07:43:24;0;0;0
44045;PMS7003;29709;52.396;16.796;2022-10-19T07:46:52;0;0;0
44045;PMS7003;29709;52.396;16.796;2022-10-19T07:49:55;0;0;0
44045;PMS7003;29709;52.396;16.796;2022-10-19T07:52:58;1;0;0
44045;PMS7003;29709;52.396;16.796;2022-10-19T07:56:04;0;0;0
44045;PMS7003;29709;52.396;16.796;2022-10-19T07:59:15;0;0;0
44045;PMS7003;29709;52.396;16.796;2022-10-19T08:02:19;0;0;0
44045;PMS7003;29709;52.396;16.796;2022-10-19T08:05:26;0;0;0
44045;PMS7003;29709;52.396;16.796;2022-10-19T08:08:58;0;0;0
44045;PMS7003;29709;52.396;16.796;2022-10-19T08:12:03;0;0;0
44045;PMS7003;29709;52.396;16.796;2022-10-19T08:15:07;1;0;0
44045;PMS7003;29709;52.396;16.796;2022-10-19T08:18:10;0;0;0
44045;PMS7003;29709;52.396;16.796;2022-10-19T08:21:13;0;0;0
44045;PMS7003;29709;52.396;16.796;2022-10-19T08:24:17;1;0;0
44045;PMS7003;29709;52.396;16.796;2022-10-19T08:27:21;0;0;0
44045;PMS7003;29709;52.396;16.796;2022-10-19T08:30:24;0;0;0
44045;PMS7003;29709;52.396;16.796;2022-10-19T08:33:27;0;0;0
44045;PMS7003;29709;52.396;16.796;2022-10-19T08:36:30;0;0;0
44045;PMS7003;29709;52.396;16.796;2022-10-19T08:40:07;1;0;0
44045;PMS7003;29709;52.396;16.796;2022-10-19T08:43:19;0;0;0
44045;PMS7003;29709;52.396;16.796;2022-10-19T08:46:39;1;1;1
44045;PMS7003;29709;52.396;16.796;2022-10-19T08:49:47;1;0;0
44045;PMS7003;29709;52.396;16.796;2022-10-19T08:53:10;1;0;0
44045;PMS7003;29709;52.396;16.796;2022-10-19T08:56:32;0;0;0
44045;PMS7003;29709;52.396;16.796;2022-10-19T08:59:44;0;0;0
44045;PMS7003;29709;52.396;16.796;2022-10-19T09:09:24;0;0;0
44045;PMS7003;29709;52.396;16.796;2022-10-19T09:12:34;0;0;0
44045;PMS7003;29709;52.396;16.796;2022-10-19T09:15:46;0;0;0
44045;PMS7003;29709;52.396;16.796;2022-10-19T09:18:51;0;0;0
44045;PMS7003;29709;52.396;16.796;2022-10-19T09:22:20;1;1;1
44045;PMS7003;29709;52.396;16.796;2022-10-19T09:25:29;0;0;0
44045;PMS7003;29709;52.396;16.796;2022-10-19T09:31:52;0;0;0
44045;PMS7003;29709;52.396;16.796;2022-10-19T09:35:04;0;0;0
44045;PMS7003;29709;52.396;16.796;2022-10-19T09:38:15;0;0;0
44045;PMS7003;29709;52.396;16.796;2022-10-19T09:41:46;0;0;0
44045;PMS7003;29709;52.396;16.796;2022-10-19T09:45:00;0;0;0
44045;PMS7003;29709;52.396;16.796;2022-10-19T09:48:28;0;0;0
44045;PMS7003;29709;52.396;16.796;2022-10-19T09:51:25;0;0;0
44045;PMS7003;29709;52.396;16.796;2022-10-19T09:54:39;0;0;0
44045;PMS7003;29709;52.396;16.796;2022-10-19T10:04:37;0;0;0
44045;PMS7003;29709;52.396;16.796;2022-10-19T10:07:40;0;0;0
44045;PMS7003;29709;52.396;16.796;2022-10-19T10:10:44;0;0;0
44045;PMS7003;29709;52.396;16.796;2022-10-19T10:17:27;0;0;0
44045;PMS7003;29709;52.396;16.796;2022-10-19T10:20:32;0;0;0
44045;PMS7003;29709;52.396;16.796;2022-10-19T10:23:39;0;0;0
44045;PMS7003;29709;52.396;16.796;2022-10-19T10:27:24;0;0;0
44045;PMS7003;29709;52.396;16.796;2022-10-19T10:30:34;0;0;0
44045;PMS7003;29709;52.396;16.796;2022-10-19T10:33:38;0;0;0
44045;PMS7003;29709;52.396;16.796;2022-10-19T10:36:50;0;0;0
44045;PMS7003;29709;52.396;16.796;2022-10-19T10:39:56;0;0;0
44045;PMS7003;29709;52.396;16.796;2022-10-19T10:46:52;0;0;0
44045;PMS7003;29709;52.396;16.796;2022-10-19T10:50:00;0;0;0
44045;PMS7003;29709;52.396;16.796;2022-10-19T10:53:28;0;0;0
44045;PMS7003;29709;52.396;16.796;2022-10-19T10:56:24;0;0;0
44045;PMS7003;29709;52.396;16.796;2022-10-19T11:00:17;0;0;0
44045;PMS7003;29709;52.396;16.796;2022-10-19T11:02:47;0;0;0
44045;PMS7003;29709;52.396;16.796;2022-10-19T11:09:14;0;0;0
44045;PMS7003;29709;52.396;16.796;2022-10-19T11:12:27;0;0;0
44045;PMS7003;29709;52.396;16.796;2022-10-19T11:15:37;0;0;0
44045;PMS7003;29709;52.396;16.796;2022-10-19T11:18:51;0;0;0
44045;PMS7003;29709;52.396;16.796;2022-10-19T11:28:37;0;0;0
44045;PMS7003;29709;52.396;16.796;2022-10-19T11:31:48;0;0;0
44045;PMS7003;29709;52.396;16.796;2022-10-19T11:41:29;0;0;0
44045;PMS7003;29709;52.396;16.796;2022-10-19T11:51:15;0;0;0
44045;PMS7003;29709;52.396;16.796;2022-10-19T11:57:49;0;0;0
44045;PMS7003;29709;52.396;16.796;2022-10-19T12:14:02;0;0;0
44045;PMS7003;29709;52.396;16.796;2022-10-19T12:17:14;0;0;0
44045;PMS7003;29709;52.396;16.796;2022-10-19T12:20:46;0;0;0
44045;PMS7003;29709;52.396;16.796;2022-10-19T12:23:43;0;0;0
44045;PMS7003;29709;52.396;16.796;2022-10-19T12:26:49;0;0;0
44045;PMS7003;29709;52.396;16.796;2022-10-19T12:30:00;1;0;0
44045;PMS7003;29709;52.396;16.796;2022-10-19T12:33:14;2;0;0
44045;PMS7003;29709;52.396;16.796;2022-10-19T12:43:07;0;0;0
44045;PMS7003;29709;52.396;16.796;2022-10-19T12:46:28;0;0;0
44045;PMS7003;29709;52.396;16.796;2022-10-19T12:49:35;0;0;0
44045;PMS7003;29709;52.396;16.796;2022-10-19T12:52:45;0;0;0
44045;PMS7003;29709;52.396;16.796;2022-10-19T12:59:02;0;0;0
44045;PMS7003;29709;52.396;16.796;2022-10-19T13:02:31;0;0;0
44045;PMS7003;29709;52.396;16.796;2022-10-19T13:05:38;0;0;0
44045;PMS7003;29709;52.396;16.796;2022-10-19T13:08:46;0;0;0
44045;PMS7003;29709;52.396;16.796;2022-10-19T13:21:53;0;0;0
44045;PMS7003;29709;52.396;16.796;2022-10-19T13:38:20;0;0;0
44045;PMS7003;29709;52.396;16.796;2022-10-19T13:41:51;2;2;2
44045;PMS7003;29709;52.396;16.796;2022-10-19T13:44:51;4;3;3
44045;PMS7003;29709;52.396;16.796;2022-10-19T13:48:00;0;0;0
44045;PMS7003;29709;52.396;16.796;2022-10-19T13:54:49;0;0;0
44045;PMS7003;29709;52.396;16.796;2022-10-19T13:58:08;0;0;0
44045;PMS7003;29709;52.396;16.796;2022-10-19T14:01:20;0;0;0
44045;PMS7003;29709;52.396;16.796;2022-10-19T14:07:53;0;0;0
44045;PMS7003;29709;52.396;16.796;2022-10-19T14:11:14;0;0;0
44045;PMS7003;29709;52.396;16.796;2022-10-19T14:14:21;0;0;0
44045;PMS7003;29709;52.396;16.796;2022-10-19T14:17:38;0;0;0
44045;PMS7003;29709;52.396;16.796;2022-10-19T14:20:54;0;0;0
44045;PMS7003;29709;52.396;16.796;2022-10-19T14:24:02;0;0;0
44045;PMS7003;29709;52.396;16.796;2022-10-19T14:27:17;0;0;0
44045;PMS7003;29709;52.396;16.796;2022-10-19T14:30:26;0;0;0
44045;PMS7003;29709;52.396;16.796;2022-10-19T14:33:33;0;0;0
44045;PMS7003;29709;52.396;16.796;2022-10-19T14:36:42;0;0;0
44045;PMS7003;29709;52.396;16.796;2022-10-19T14:43:26;0;0;0
44045;PMS7003;29709;52.396;16.796;2022-10-19T14:46:18;0;0;0
44045;PMS7003;29709;52.396;16.796;2022-10-19T14:49:49;0;0;0
44045;PMS7003;29709;52.396;16.796;2022-10-19T14:52:54;0;0;0
44045;PMS7003;29709;52.396;16.796;2022-10-19T14:59:21;0;0;0
44045;PMS7003;29709;52.396;16.796;2022-10-19T15:02:29;0;0;0
44045;PMS7003;29709;52.396;16.796;2022-10-19T15:05:38;0;0;0
44045;PMS7003;29709;52.396;16.796;2022-10-19T15:08:50;0;0;0
44045;PMS7003;29709;52.396;16.796;2022-10-19T15:12:03;0;0;0
44045;PMS7003;29709;52.396;16.796;2022-10-19T15:18:50;0;0;0
44045;PMS7003;29709;52.396;16.796;2022-10-19T15:25:34;0;0;0
44045;PMS7003;29709;52.396;16.796;2022-10-19T15:32:14;0;0;0
44045;PMS7003;29709;52.396;16.796;2022-10-19T15:35:34;0;0;0
44045;PMS7003;29709;52.396;16.796;2022-10-19T15:38:41;0;0;0
44045;PMS7003;29709;52.396;16.796;2022-10-19T15:42:20;0;0;0
44045;PMS7003;29709;52.396;16.796;2022-10-19T15:51:50;0;0;0
44045;PMS7003;29709;52.396;16.796;2022-10-19T15:55:03;0;0;0
44045;PMS7003;29709;52.396;16.796;2022-10-19T15:58:33;1;1;0
44045;PMS7003;29709;52.396;16.796;2022-10-19T16:02:07;1;1;0
44045;PMS7003;29709;52.396;16.796;2022-10-19T16:05:02;1;0;0
44045;PMS7003;29709;52.396;16.796;2022-10-19T16:08:06;0;0;0
44045;PMS7003;29709;52.396;16.796;2022-10-19T16:11:13;0;0;0
44045;PMS7003;29709;52.396;16.796;2022-10-19T16:14:45;0;0;0
44045;PMS7003;29709;52.396;16.796;2022-10-19T16:24:16;2;1;0
44045;PMS7003;29709;52.396;16.796;2022-10-19T16:27:19;2;1;1
44045;PMS7003;29709;52.396;16.796;2022-10-19T16:33:57;3;1;1
44045;PMS7003;29709;52.396;16.796;2022-10-19T16:37:00;2;2;1
44045;PMS7003;29709;52.396;16.796;2022-10-19T16:40:03;2;1;1
44045;PMS7003;29709;52.396;16.796;2022-10-19T16:43:07;3;3;2
44045;PMS7003;29709;52.396;16.796;2022-10-19T16:46:11;3;3;2
44045;PMS7003;29709;52.396;16.796;2022-10-19T16:49:14;4;3;3
44045;PMS7003;29709;52.396;16.796;2022-10-19T16:52:17;6;5;3
44045;PMS7003;29709;52.396;16.796;2022-10-19T16:55:20;10;9;7
44045;PMS7003;29709;52.396;16.796;2022-10-19T16:58:23;10;8;6
44045;PMS7003;29709;52.396;16.796;2022-10-19T17:01:27;12;11;8
44045;PMS7003;29709;52.396;16.796;2022-10-19T17:04:56;14;12;9
44045;PMS7003;29709;52.396;16.796;2022-10-19T17:07:59;12;9;7
44045;PMS7003;29709;52.396;16.796;2022-10-19T17:14:16;6;6;4
44045;PMS7003;29709;52.396;16.796;2022-10-19T17:17:19;8;7;6
44045;PMS7003;29709;52.396;16.796;2022-10-19T17:20:22;14;11;9
44045;PMS7003;29709;52.396;16.796;2022-10-19T17:23:25;27;24;17
44045;PMS7003;29709;52.396;16.796;2022-10-19T17:26:33;29;23;16
44045;PMS7003;29709;52.396;16.796;2022-10-19T17:30:18;12;12;9
44045;PMS7003;29709;52.396;16.796;2022-10-19T17:33:21;13;10;7
44045;PMS7003;29709;52.396;16.796;2022-10-19T17:36:25;14;12;10
44045;PMS7003;29709;52.396;16.796;2022-10-19T17:39:29;8;7;5
44045;PMS7003;29709;52.396;16.796;2022-10-19T17:42:33;10;9;6
44045;PMS7003;29709;52.396;16.796;2022-10-19T17:45:38;8;7;5
44045;PMS7003;29709;52.396;16.796;2022-10-19T17:48:41;8;6;5
44045;PMS7003;29709;52.396;16.796;2022-10-19T17:51:46;12;11;8
44045;PMS7003;29709;52.396;16.796;2022-10-19T17:54:53;0;0;0
44045;PMS7003;29709;52.396;16.796;2022-10-19T17:58:21;12;9;6
44045;PMS7003;29709;52.396;16.796;2022-10-19T18:01:25;14;11;7
44045;PMS7003;29709;52.396;16.796;2022-10-19T18:04:28;17;16;13
44045;PMS7003;29709;52.396;16.796;2022-10-19T18:07:31;13;12;9
44045;PMS7003;29709;52.396;16.796;2022-10-19T18:10:34;15;14;11
44045;PMS7003;29709;52.396;16.796;2022-10-19T18:13:38;14;11;6
44045;PMS7003;29709;52.396;16.796;2022-10-19T18:16:42;28;26;18
44045;PMS7003;29709;52.396;16.796;2022-10-19T18:19:47;44;36;24
44045;PMS7003;29709;52.396;16.796;2022-10-19T18:22:51;36;30;21
44045;PMS7003;29709;52.396;16.796;2022-10-19T18:25:54;30;25;17
44045;PMS7003;29709;52.396;16.796;2022-10-19T18:28:57;29;23;16
44045;PMS7003;29709;52.396;16.796;2022-10-19T18:32:27;54;41;27
44045;PMS7003;29709;52.396;16.796;2022-10-19T18:35:34;37;29;20
44045;PMS7003;29709;52.396;16.796;2022-10-19T18:38:38;16;14;8
44045;PMS7003;29709;52.396;16.796;2022-10-19T18:41:42;31;26;17
44045;PMS7003;29709;52.396;16.796;2022-10-19T18:44:45;23;19;10
44045;PMS7003;29709;52.396;16.796;2022-10-19T18:47:48;37;27;18
44045;PMS7003;29709;52.396;16.796;2022-10-19T18:50:51;32;27;19
44045;PMS7003;29709;52.396;16.796;2022-10-19T18:53:55;19;17;13
44045;PMS7003;29709;52.396;16.796;2022-10-19T18:56:58;17;15;12
44045;PMS7003;29709;52.396;16.796;2022-10-19T19:00:30;21;18;13
44045;PMS7003;29709;52.396;16.796;2022-10-19T19:03:34;12;10;7
44045;PMS7003;29709;52.396;16.796;2022-10-19T19:06:40;9;8;6
44045;PMS7003;29709;52.396;16.796;2022-10-19T19:09:43;13;10;8
44045;PMS7003;29709;52.396;16.796;2022-10-19T19:12:50;8;5;5
44045;PMS7003;29709;52.396;16.796;2022-10-19T19:15:58;6;5;4
44045;PMS7003;29709;52.396;16.796;2022-10-19T19:19:01;10;8;6
44045;PMS7003;29709;52.396;16.796;2022-10-19T19:22:08;11;10;8
44045;PMS7003;29709;52.396;16.796;2022-10-19T19:25:38;21;21;14
44045;PMS7003;29709;52.396;16.796;2022-10-19T19:28:42;31;25;18
44045;PMS7003;29709;52.396;16.796;2022-10-19T19:31:46;32;24;18
44045;PMS7003;29709;52.396;16.796;2022-10-19T19:34:49;22;18;13
44045;PMS7003;29709;52.396;16.796;2022-10-19T19:37:52;15;14;10
44045;PMS7003;29709;52.396;16.796;2022-10-19T19:40:57;16;14;11
44045;PMS7003;29709;52.396;16.796;2022-10-19T19:44:00;15;15;10
44045;PMS7003;29709;52.396;16.796;2022-10-19T19:47:03;13;12;9
44045;PMS7003;29709;52.396;16.796;2022-10-19T19:50:08;9;8;5
44045;PMS7003;29709;52.396;16.796;2022-10-19T19:53:14;14;11;8
44045;PMS7003;29709;52.396;16.796;2022-10-19T19:56:50;9;6;2
44045;PMS7003;29709;52.396;16.796;2022-10-19T19:59:58;15;14;10
44045;PMS7003;29709;52.396;16.796;2022-10-19T20:03:02;17;13;10
44045;PMS7003;29709;52.396;16.796;2022-10-19T20:06:07;20;16;12
44045;PMS7003;29709;52.396;16.796;2022-10-19T20:09:11;24;23;15
44045;PMS7003;29709;52.396;16.796;2022-10-19T20:12:14;27;21;16
44045;PMS7003;29709;52.396;16.796;2022-10-19T20:15:18;26;25;19
44045;PMS7003;29709;52.396;16.796;2022-10-19T20:18:25;21;18;14
44045;PMS7003;29709;52.396;16.796;2022-10-19T20:21:54;16;15;12
44045;PMS7003;29709;52.396;16.796;2022-10-19T20:25:01;20;19;14
44045;PMS7003;29709;52.396;16.796;2022-10-19T20:28:05;23;22;17
44045;PMS7003;29709;52.396;16.796;2022-10-19T20:31:11;29;25;17
44045;PMS7003;29709;52.396;16.796;2022-10-19T20:34:15;46;36;25
44045;PMS7003;29709;52.396;16.796;2022-10-19T20:37:21;43;34;23
44045;PMS7003;29709;52.396;16.796;2022-10-19T20:40:24;33;27;22
44045;PMS7003;29709;52.396;16.796;2022-10-19T20:43:27;27;22;16
44045;PMS7003;29709;52.396;16.796;2022-10-19T20:46:30;20;18;13
44045;PMS7003;29709;52.396;16.796;2022-10-19T20:50:01;25;23;15
44045;PMS7003;29709;52.396;16.796;2022-10-19T20:53:04;16;13;9
44045;PMS7003;29709;52.396;16.796;2022-10-19T20:56:08;15;12;8
44045;PMS7003;29709;52.396;16.796;2022-10-19T20:59:13;19;18;13
44045;PMS7003;29709;52.396;16.796;2022-10-19T21:02:18;18;15;11
44045;PMS7003;29709;52.396;16.796;2022-10-19T21:05:21;20;16;13
44045;PMS7003;29709;52.396;16.796;2022-10-19T21:08:24;22;16;12
44045;PMS7003;29709;52.396;16.796;2022-10-19T21:11:28;17;15;11
44045;PMS7003;29709;52.396;16.796;2022-10-19T21:14:33;21;19;13
44045;PMS7003;29709;52.396;16.796;2022-10-19T21:24:29;23;21;14
44045;PMS7003;29709;52.396;16.796;2022-10-19T21:27:37;23;20;15
44045;PMS7003;29709;52.396;16.796;2022-10-19T21:30:40;29;25;18
44045;PMS7003;29709;52.396;16.796;2022-10-19T21:33:43;26;24;17
44045;PMS7003;29709;52.396;16.796;2022-10-19T21:36:46;27;22;15
44045;PMS7003;29709;52.396;16.796;2022-10-19T21:40:15;16;16;12
44045;PMS7003;29709;52.396;16.796;2022-10-19T21:43:18;14;13;9
44045;PMS7003;29709;52.396;16.796;2022-10-19T21:46:21;13;12;9
44045;PMS7003;29709;52.396;16.796;2022-10-19T21:49:25;14;13;10
44045;PMS7003;29709;52.396;16.796;2022-10-19T21:54:07;15;15;12
44045;PMS7003;29709;52.396;16.796;2022-10-19T21:57:14;10;10;8
44045;PMS7003;29709;52.396;16.796;2022-10-19T22:00:17;14;12;9
44045;PMS7003;29709;52.396;16.796;2022-10-19T22:03:20;8;8;5
44045;PMS7003;29709;52.396;16.796;2022-10-19T22:06:25;14;12;9
44045;PMS7003;29709;52.396;16.796;2022-10-19T22:09:29;7;6;5
44045;PMS7003;29709;52.396;16.796;2022-10-19T22:12:32;12;10;9
44045;PMS7003;29709;52.396;16.796;2022-10-19T22:15:36;15;12;9
44045;PMS7003;29709;52.396;16.796;2022-10-19T22:18:40;15;13;9
44045;PMS7003;29709;52.396;16.796;2022-10-19T22:22:09;13;12;9
44045;PMS7003;29709;52.396;16.796;2022-10-19T22:25:11;12;11;9
44045;PMS7003;29709;52.396;16.796;2022-10-19T22:28:14;13;12;9
44045;PMS7003;29709;52.396;16.796;2022-10-19T22:31:17;14;13;9
44045;PMS7003;29709;52.396;16.796;2022-10-19T22:34:20;13;11;8
44045;PMS7003;29709;52.396;16.796;2022-10-19T22:37:23;13;13;10
44045;PMS7003;29709;52.396;16.796;2022-10-19T22:40:26;14;13;9
44045;PMS7003;29709;52.396;16.796;2022-10-19T22:43:29;11;11;8
44045;PMS7003;29709;52.396;16.796;2022-10-19T22:46:32;12;11;9
44045;PMS7003;29709;52.396;16.796;2022-10-19T22:49:35;11;11;8
44045;PMS7003;29709;52.396;16.796;2022-10-19T22:52:38;11;9;8
44045;PMS7003;29709;52.396;16.796;2022-10-19T22:56:08;9;7;6
44045;PMS7003;29709;52.396;16.796;2022-10-19T22:59:13;13;10;8
44045;PMS7003;29709;52.396;16.796;2022-10-19T23:02:16;10;10;8
44045;PMS7003;29709;52.396;16.796;2022-10-19T23:05:19;13;11;8
44045;PMS7003;29709;52.396;16.796;2022-10-19T23:08:22;15;10;9
44045;PMS7003;29709;52.396;16.796;2022-10-19T23:11:26;11;9;7
44045;PMS7003;29709;52.396;16.796;2022-10-19T23:14:29;13;8;6
44045;PMS7003;29709;52.396;16.796;2022-10-19T23:17:32;11;9;6
44045;PMS7003;29709;52.396;16.796;2022-10-19T23:20:35;13;13;10
44045;PMS7003;29709;52.396;16.796;2022-10-19T23:23:39;13;13;9
44045;PMS7003;29709;52.396;16.796;2022-10-19T23:27:08;13;11;8
44045;PMS7003;29709;52.396;16.796;2022-10-19T23:30:11;10;8;6
44045;PMS7003;29709;52.396;16.796;2022-10-19T23:33:14;15;11;9
44045;PMS7003;29709;52.396;16.796;2022-10-19T23:36:18;10;8;7
44045;PMS7003;29709;52.396;16.796;2022-10-19T23:39:26;8;8;4
44045;PMS7003;29709;52.396;16.796;2022-10-19T23:42:29;16;13;10
44045;PMS7003;29709;52.396;16.796;2022-10-19T23:45:32;13;12;9
44045;PMS7003;29709;52.396;16.796;2022-10-19T23:48:36;6;4;1
44045;PMS7003;29709;52.396;16.796;2022-10-19T23:51:39;17;14;11
44045;PMS7003;29709;52.396;16.796;2022-10-19T23:54:42;15;14;10
44045;PMS7003;29709;52.396;16.796;2022-10-19T23:58:10;15;14;11
